createdAt,value
2023-04-03T00:00:36.754Z,9.20
2023-04-03T00:03:03.503Z,9.02
2023-04-03T00:05:30.288Z,9.57
2023-04-03T00:07:56.834Z,10.10
2023-04-03T00:10:23.457Z,9.00
2023-04-03T00:12:49.962Z,10.07
2023-04-03T00:15:16.539Z,9.05
2023-04-03T00:17:43.167Z,8.95
2023-04-03T00:20:10.069Z,9.38
2023-04-03T00:22:36.596Z,10.85
2023-04-03T00:25:04.129Z,11.02
2023-04-03T00:27:30.675Z,8.57
2023-04-03T00:29:57.107Z,8.75
2023-04-03T00:32:23.612Z,9.60
2023-04-03T00:34:50.306Z,10.02
2023-04-03T00:37:16.780Z,8.55
2023-04-03T00:39:43.243Z,8.77
2023-04-03T00:42:09.725Z,7.93
2023-04-03T00:44:36.156Z,9.02
2023-04-03T00:47:08.106Z,8.35
2023-04-03T00:49:35.296Z,6.40
2023-04-03T00:52:02.602Z,6.65
2023-04-03T00:54:29.129Z,5.28
2023-04-03T00:56:57.599Z,6.50
2023-04-03T00:59:31.261Z,7.10
2023-04-03T01:01:58.201Z,4.25
2023-04-03T01:04:39.522Z,5.45
2023-04-03T01:07:16.334Z,5.43
2023-04-03T01:09:44.085Z,5.53
2023-04-03T01:12:38.681Z,6.15
2023-04-03T01:15:08.774Z,4.15
2023-04-03T01:17:51.476Z,7.05
2023-04-03T01:20:34.019Z,4.57
2023-04-03T01:23:09.993Z,8.93
2023-04-03T01:25:39.292Z,5.25
2023-04-03T01:28:08.400Z,5.93
2023-04-03T01:30:42.300Z,4.80
2023-04-03T01:33:08.909Z,4.50
2023-04-03T01:35:35.455Z,6.28
2023-04-03T01:38:02.007Z,8.68
2023-04-03T01:40:28.477Z,5.35
2023-04-03T01:42:54.915Z,5.32
2023-04-03T01:45:21.400Z,6.25
2023-04-03T01:47:47.894Z,7.70
2023-04-03T01:50:14.517Z,6.45
2023-04-03T01:52:41.016Z,6.25
2023-04-03T01:55:07.885Z,4.95
2023-04-03T01:57:34.403Z,6.70
2023-04-03T02:00:00.999Z,6.07
2023-04-03T02:02:27.513Z,6.43
2023-04-03T02:04:54.192Z,7.93
2023-04-03T02:07:20.697Z,6.90
2023-04-03T02:09:47.225Z,6.38
2023-04-03T02:12:13.729Z,5.80
2023-04-03T02:14:40.400Z,4.80
2023-04-03T02:17:09.638Z,5.03
2023-04-03T02:19:36.731Z,6.05
2023-04-03T02:22:06.351Z,5.88
2023-04-03T02:24:33.042Z,8.48
2023-04-03T02:26:59.965Z,5.00
2023-04-03T02:29:26.588Z,5.57
2023-04-03T02:31:53.122Z,6.65
2023-04-03T02:34:19.600Z,6.30
2023-04-03T02:36:46.165Z,4.85
2023-04-03T02:39:12.694Z,5.35
2023-04-03T02:41:39.138Z,5.78
2023-04-03T02:44:07.421Z,5.53
2023-04-03T02:46:34.778Z,6.85
2023-04-03T02:49:01.410Z,5.25
2023-04-03T02:51:27.929Z,7.22
2023-04-03T02:53:54.565Z,5.22
2023-04-03T02:56:21.452Z,5.32
2023-04-03T02:58:48.041Z,4.70
2023-04-03T03:01:14.897Z,4.43
2023-04-03T03:03:41.412Z,4.47
2023-04-03T03:06:14.185Z,7.00
2023-04-03T03:08:41.074Z,4.78
2023-04-03T03:11:07.645Z,5.53
2023-04-03T03:13:35.336Z,6.13
2023-04-03T03:16:02.303Z,4.90
2023-04-03T03:18:29.133Z,3.53
2023-04-03T03:20:58.201Z,4.38
2023-04-03T03:23:27.064Z,4.07
2023-04-03T03:25:58.344Z,7.13
2023-04-03T03:28:25.385Z,4.72
2023-04-03T03:30:52.148Z,3.67
2023-04-03T03:33:19.578Z,3.70
2023-04-03T03:35:46.199Z,5.38
2023-04-03T03:38:13.181Z,5.53
2023-04-03T03:40:39.819Z,5.80
2023-04-03T03:43:06.500Z,5.13
2023-04-03T03:45:33.122Z,4.05
2023-04-03T03:47:59.676Z,4.28
2023-04-03T03:50:26.227Z,8.82
2023-04-03T03:52:52.694Z,6.75
2023-04-03T03:55:19.354Z,5.38
2023-04-03T03:57:46.002Z,6.18
2023-04-03T04:00:12.898Z,4.75
2023-04-03T04:02:39.530Z,5.30
2023-04-03T04:05:06.435Z,5.50
2023-04-03T04:07:32.963Z,4.05
2023-04-03T04:09:59.421Z,5.40
2023-04-03T04:12:26.142Z,3.90
2023-04-03T04:14:52.647Z,4.38
2023-04-03T04:17:20.794Z,5.05
2023-04-03T04:19:47.313Z,5.25
2023-04-03T04:22:13.821Z,5.03
2023-04-03T04:24:40.319Z,5.45
2023-04-03T04:27:06.862Z,4.20
2023-04-03T04:29:36.721Z,6.85
2023-04-03T04:32:04.756Z,3.97
2023-04-03T04:34:31.593Z,5.00
2023-04-03T04:36:58.244Z,4.43
2023-04-03T04:39:24.787Z,6.00
2023-04-03T04:41:51.418Z,8.07
2023-04-03T04:44:17.885Z,5.10
2023-04-03T04:46:44.374Z,4.93
2023-04-03T04:49:11.060Z,7.35
2023-04-03T04:51:48.315Z,4.47
2023-04-03T04:54:18.948Z,6.40
2023-04-03T04:56:45.542Z,3.92
2023-04-03T04:59:12.030Z,4.90
2023-04-03T05:01:38.617Z,5.22
2023-04-03T05:04:05.583Z,3.33
2023-04-03T05:06:33.081Z,4.47
2023-04-03T05:09:00.224Z,4.78
2023-04-03T05:11:27.185Z,5.18
2023-04-03T05:13:53.775Z,5.05
2023-04-03T05:16:20.315Z,5.40
2023-04-03T05:18:46.936Z,7.53
2023-04-03T05:21:13.662Z,5.85
2023-04-03T05:23:40.189Z,4.97
2023-04-03T05:26:06.888Z,3.90
2023-04-03T05:28:34.044Z,5.00
2023-04-03T05:31:00.708Z,6.43
2023-04-03T05:33:27.690Z,3.65
2023-04-03T05:35:55.656Z,5.30
2023-04-03T05:38:22.564Z,8.10
2023-04-03T05:40:49.055Z,4.97
2023-04-03T05:43:15.885Z,6.07
2023-04-03T05:45:43.626Z,7.55
2023-04-03T05:48:11.540Z,3.97
2023-04-03T05:50:42.421Z,11.18
2023-04-03T05:53:17.414Z,4.18
2023-04-03T05:55:43.902Z,4.18
2023-04-03T05:58:11.748Z,6.90
2023-04-03T06:00:38.535Z,4.85
2023-04-03T06:03:05.261Z,4.00
2023-04-03T06:05:32.038Z,6.55
2023-04-03T06:07:58.741Z,4.68
2023-04-03T06:10:25.310Z,4.50
2023-04-03T06:12:52.344Z,6.97
2023-04-03T06:15:19.004Z,5.55
2023-04-03T06:17:45.758Z,6.93
2023-04-03T06:20:13.319Z,5.00
2023-04-03T06:22:40.377Z,6.65
2023-04-03T06:25:07.410Z,5.82
2023-04-03T06:27:33.951Z,4.93
2023-04-03T06:30:00.572Z,4.50
2023-04-03T06:32:27.570Z,5.65
2023-04-03T06:34:54.589Z,4.78
2023-04-03T06:37:23.381Z,7.50
2023-04-03T06:39:49.961Z,5.72
2023-04-03T06:42:17.160Z,7.30
2023-04-03T06:44:43.705Z,7.63
2023-04-03T06:47:17.618Z,6.82
2023-04-03T06:49:44.690Z,6.75
2023-04-03T06:52:13.141Z,5.13
2023-04-03T06:54:41.065Z,6.35
2023-04-03T06:57:08.625Z,6.88
2023-04-03T06:59:36.001Z,7.05
2023-04-03T07:02:02.591Z,5.65
2023-04-03T07:04:29.325Z,8.30
2023-04-03T07:06:55.852Z,9.15
2023-04-03T07:09:22.625Z,9.60
2023-04-03T07:11:49.279Z,6.93
2023-04-03T07:14:15.924Z,6.68
2023-04-03T07:16:42.848Z,7.88
2023-04-03T07:19:09.998Z,9.02
2023-04-03T07:21:36.802Z,8.35
2023-04-03T07:24:03.703Z,7.45
2023-04-03T07:26:30.251Z,7.32
2023-04-03T07:28:57.109Z,8.98
2023-04-03T07:31:24.078Z,9.68
2023-04-03T07:33:50.980Z,8.18
2023-04-03T07:36:20.439Z,6.85
2023-04-03T07:38:47.018Z,7.57
2023-04-03T07:41:16.827Z,6.78
2023-04-03T07:43:43.351Z,6.70
2023-04-03T07:46:10.381Z,9.40
2023-04-03T07:48:37.236Z,5.63
2023-04-03T07:51:05.105Z,5.80
2023-04-03T07:53:32.336Z,6.20
2023-04-03T07:55:59.733Z,5.28
2023-04-03T07:58:26.711Z,6.20
2023-04-03T08:00:53.414Z,5.90
2023-04-03T08:03:20.125Z,4.72
2023-04-03T08:05:49.414Z,5.22
2023-04-03T08:08:21.182Z,4.22
2023-04-03T08:10:55.001Z,4.95
2023-04-03T08:15:48.599Z,4.25
2023-04-03T08:18:16.982Z,4.80
2023-04-03T08:20:44.037Z,5.28
2023-04-03T08:23:11.392Z,5.05
2023-04-03T08:25:42.370Z,8.13
2023-04-03T08:28:10.089Z,5.07
2023-04-03T08:30:37.146Z,6.75
2023-04-03T08:33:04.954Z,4.82
2023-04-03T08:35:31.689Z,5.85
2023-04-03T08:37:58.325Z,5.35
2023-04-03T08:40:25.565Z,5.15
2023-04-03T08:43:20.435Z,4.90
2023-04-03T08:45:52.703Z,6.88
2023-04-03T08:48:30.492Z,5.50
2023-04-03T08:51:12.195Z,4.88
2023-04-03T08:53:43.287Z,6.45
2023-04-03T08:56:11.119Z,6.15
2023-04-03T08:58:48.786Z,4.50
2023-04-03T09:01:22.375Z,4.35
2023-04-03T09:03:48.991Z,3.05
2023-04-03T09:06:31.557Z,7.80
2023-04-03T09:09:22.928Z,3.72
2023-04-03T09:12:01.306Z,3.78
2023-04-03T09:14:38.099Z,5.38
2023-04-03T09:17:14.891Z,4.85
2023-04-03T09:20:03.279Z,4.22
2023-04-03T09:22:36.491Z,3.75
2023-04-03T09:25:14.841Z,4.22
2023-04-03T09:27:41.395Z,9.48
2023-04-03T09:30:17.970Z,5.50
2023-04-03T09:32:50.947Z,5.45
2023-04-03T09:35:36.451Z,4.57
2023-04-03T09:38:14.279Z,4.05
2023-04-03T09:40:52.469Z,3.50
2023-04-03T09:43:28.444Z,3.70
2023-04-03T09:45:56.599Z,4.32
2023-04-03T09:48:26.333Z,5.50
2023-04-03T09:50:56.624Z,5.65
2023-04-03T09:53:31.152Z,4.53
2023-04-03T09:55:58.004Z,2.45
2023-04-03T09:58:36.054Z,2.92
2023-04-03T10:01:34.811Z,2.78
2023-04-03T10:04:07.330Z,4.93
2023-04-03T10:06:41.703Z,2.40
2023-04-03T10:09:22.123Z,1.92
2023-04-03T10:11:59.253Z,2.88
2023-04-03T10:14:26.261Z,3.63
2023-04-03T10:17:04.497Z,1.83
2023-04-03T10:19:37.738Z,2.17
2023-04-03T10:22:36.597Z,2.65
2023-04-03T10:25:15.773Z,2.42
2023-04-03T10:28:07.413Z,2.40
2023-04-03T10:30:41.540Z,2.20
2023-04-03T10:33:23.295Z,1.98
2023-04-03T10:36:02.055Z,2.35
2023-04-03T10:38:49.547Z,3.25
2023-04-03T10:41:30.046Z,1.75
2023-04-03T10:44:08.403Z,4.97
2023-04-03T10:46:54.685Z,4.15
2023-04-03T10:49:32.339Z,2.40
2023-04-03T10:52:13.984Z,2.63
2023-04-03T10:55:19.241Z,1.88
2023-04-03T10:57:47.292Z,2.50
2023-04-03T11:00:20.826Z,2.30
2023-04-03T11:03:01.172Z,2.80
2023-04-03T11:05:35.417Z,2.50
2023-04-03T11:08:14.567Z,2.80
2023-04-03T11:10:45.897Z,2.08
2023-04-03T11:13:21.646Z,2.45
2023-04-03T11:15:48.963Z,4.05
2023-04-03T11:18:38.719Z,1.50
2023-04-03T11:21:13.894Z,1.15
2023-04-03T11:23:49.493Z,1.50
2023-04-03T11:26:23.743Z,2.15
2023-04-03T11:29:02.717Z,2.45
2023-04-03T11:31:44.385Z,2.47
2023-04-03T11:34:37.177Z,1.67
2023-04-03T11:37:13.843Z,1.73
2023-04-03T11:39:48.969Z,1.35
2023-04-03T11:42:26.580Z,3.63
2023-04-03T11:45:25.635Z,2.05
2023-04-03T11:48:30.544Z,1.40
2023-04-03T11:50:58.840Z,1.67
2023-04-03T11:53:40.253Z,1.35
2023-04-03T11:56:24.821Z,2.50
2023-04-03T11:59:13.218Z,3.22
2023-04-03T12:01:53.753Z,1.58
2023-04-03T12:04:26.930Z,2.28
2023-04-03T12:07:13.566Z,1.40
2023-04-03T12:09:57.278Z,1.85
2023-04-03T12:14:55.378Z,1.27
2023-04-03T12:17:27.766Z,2.33
2023-04-03T12:19:54.415Z,3.30
2023-04-03T12:22:22.280Z,1.92
2023-04-03T12:24:53.701Z,3.70
2023-04-03T12:27:35.695Z,1.20
2023-04-03T12:30:02.284Z,1.73
2023-04-03T12:32:44.006Z,2.72
2023-04-03T12:35:22.700Z,2.13
2023-04-03T12:38:16.821Z,1.40
2023-04-03T12:40:43.223Z,1.38
2023-04-03T12:43:24.643Z,1.63
2023-04-03T12:46:04.810Z,1.48
2023-04-03T12:48:48.415Z,2.65
2023-04-03T12:51:18.517Z,2.28
2023-04-03T12:53:46.248Z,1.60
2023-04-03T12:56:26.327Z,2.03
2023-04-03T12:58:54.768Z,2.67
2023-04-03T13:01:27.722Z,2.92
2023-04-03T13:03:59.340Z,1.95
2023-04-03T13:06:32.089Z,1.88
2023-04-03T13:09:05.073Z,2.20
2023-04-03T13:11:37.209Z,1.92
2023-04-03T13:14:06.899Z,2.30
2023-04-03T13:16:34.710Z,2.03
2023-04-03T13:19:01.540Z,1.40
2023-04-03T13:21:31.389Z,1.77
2023-04-03T13:24:13.996Z,2.00
2023-04-03T13:29:29.816Z,1.48
2023-04-03T13:31:59.540Z,3.75
2023-04-03T13:34:30.249Z,2.75
2023-04-03T13:37:01.478Z,1.80
2023-04-03T13:39:33.966Z,2.35
2023-04-03T13:42:15.063Z,1.77
2023-04-03T13:44:41.981Z,3.65
2023-04-03T13:47:11.778Z,2.88
2023-04-03T13:49:47.510Z,2.88
2023-04-03T13:52:32.110Z,5.13
2023-04-03T13:57:54.503Z,3.38
2023-04-03T14:00:30.348Z,2.95
2023-04-03T14:02:57.999Z,1.70
2023-04-03T14:05:27.567Z,3.25
2023-04-03T14:07:56.347Z,2.10
2023-04-03T14:10:23.300Z,2.58
2023-04-03T14:12:51.706Z,1.70
2023-04-03T14:15:24.611Z,2.53
2023-04-03T14:17:54.806Z,3.97
2023-04-03T14:20:24.772Z,2.55
2023-04-03T14:22:52.267Z,5.30
2023-04-03T14:25:20.306Z,4.70
2023-04-03T14:27:49.929Z,4.13
2023-04-03T14:30:23.813Z,4.70
2023-04-03T14:32:50.969Z,4.25
2023-04-03T14:35:19.713Z,6.15
2023-04-03T14:37:47.090Z,1.58
2023-04-03T14:40:20.925Z,2.17
2023-04-03T14:42:49.534Z,4.32
2023-04-03T14:45:17.502Z,1.98
2023-04-03T14:47:49.895Z,1.75
2023-04-03T14:50:22.212Z,2.08
2023-04-03T14:52:49.999Z,3.58
2023-04-03T14:55:19.163Z,3.17
2023-04-03T14:57:46.238Z,3.38
2023-04-03T15:00:18.248Z,1.70
2023-04-03T15:02:46.002Z,4.03
2023-04-03T15:05:13.648Z,2.35
2023-04-03T15:07:43.284Z,4.28
2023-04-03T15:10:28.616Z,2.30
2023-04-03T15:12:55.690Z,1.90
2023-04-03T15:15:23.554Z,2.10
2023-04-03T15:17:55.315Z,1.40
2023-04-03T15:20:25.074Z,2.08
2023-04-03T15:22:51.746Z,2.13
2023-04-03T15:25:19.210Z,2.60
2023-04-03T15:27:45.956Z,2.00
2023-04-03T15:30:16.677Z,1.75
2023-04-03T15:32:43.557Z,1.55
2023-04-03T15:35:10.428Z,2.63
2023-04-03T15:37:37.183Z,2.13
2023-04-03T15:40:05.974Z,3.22
2023-04-03T15:42:32.645Z,2.00
2023-04-03T15:44:59.657Z,3.60
2023-04-03T15:47:27.819Z,1.67
2023-04-03T15:49:55.969Z,3.53
2023-04-03T15:52:22.530Z,1.98
2023-04-03T15:54:49.020Z,2.95
2023-04-03T15:57:15.552Z,1.85
2023-04-03T15:59:42.127Z,1.88
2023-04-03T16:02:11.293Z,1.95
2023-04-03T16:04:37.814Z,3.17
2023-04-03T16:07:05.274Z,1.48
2023-04-03T16:09:35.249Z,2.05
2023-04-03T16:12:02.957Z,1.67
2023-04-03T16:14:31.218Z,2.35
2023-04-03T16:16:59.766Z,1.75
2023-04-03T16:19:26.488Z,3.05
2023-04-03T16:21:54.822Z,2.70
2023-04-03T16:24:21.395Z,1.70
2023-04-03T16:26:47.894Z,2.03
2023-04-03T16:29:14.384Z,2.45
2023-04-03T16:31:41.155Z,2.05
2023-04-03T16:34:07.734Z,3.00
2023-04-03T16:36:34.257Z,3.13
2023-04-03T16:39:00.747Z,1.98
2023-04-03T16:41:27.268Z,3.00
2023-04-03T16:43:53.856Z,3.30
2023-04-03T16:46:20.509Z,2.28
2023-04-03T16:48:47.047Z,2.10
2023-04-03T16:51:14.371Z,2.28
2023-04-03T16:53:40.934Z,1.30
2023-04-03T16:56:07.430Z,2.88
2023-04-03T16:58:33.921Z,4.78
2023-04-03T17:01:10.110Z,2.45
2023-04-03T17:03:36.669Z,4.95
2023-04-03T17:06:03.349Z,2.50
2023-04-03T17:08:29.856Z,3.15
2023-04-03T17:10:56.544Z,4.03
2023-04-03T17:13:23.124Z,2.17
2023-04-03T17:15:49.874Z,3.50
2023-04-03T17:18:16.519Z,3.58
2023-04-03T17:20:43.045Z,2.05
2023-04-03T17:23:09.605Z,4.40
2023-04-03T17:25:36.191Z,5.03
2023-04-03T17:28:02.759Z,2.97
2023-04-03T17:30:29.197Z,3.90
2023-04-03T17:32:55.800Z,3.65
2023-04-03T17:35:22.297Z,2.30
2023-04-03T17:37:50.527Z,1.90
2023-04-03T17:40:18.734Z,2.25
2023-04-03T17:42:45.609Z,2.15
2023-04-03T17:45:12.219Z,2.45
2023-04-03T17:47:38.750Z,2.78
2023-04-03T17:50:06.046Z,2.20
2023-04-03T17:52:32.573Z,2.70
2023-04-03T17:54:59.052Z,2.60
2023-04-03T17:57:25.652Z,2.42
2023-04-03T17:59:53.987Z,1.77
2023-04-03T18:02:20.824Z,6.85
2023-04-03T18:04:47.341Z,2.25
2023-04-03T18:07:13.867Z,2.72
2023-04-03T18:09:41.299Z,1.70
2023-04-03T18:12:09.882Z,2.13
2023-04-03T18:14:38.113Z,3.47
2023-04-03T18:17:04.781Z,3.00
2023-04-03T18:19:31.891Z,2.47
2023-04-03T18:22:03.091Z,1.65
2023-04-03T18:24:33.325Z,2.25
2023-04-03T18:27:22.116Z,2.88
2023-04-03T18:29:52.188Z,3.45
2023-04-03T18:32:20.524Z,5.55
2023-04-03T18:34:47.190Z,2.35
2023-04-03T18:37:15.148Z,2.33
2023-04-03T18:39:41.877Z,3.63
2023-04-03T18:42:11.922Z,3.08
2023-04-03T18:44:40.828Z,2.67
2023-04-03T18:47:08.214Z,2.22
2023-04-03T18:49:37.753Z,4.53
2023-04-03T18:52:04.710Z,2.17
2023-04-03T18:54:32.063Z,3.90
2023-04-03T18:56:59.114Z,2.10
2023-04-03T18:59:25.895Z,2.55
2023-04-03T19:01:52.536Z,2.30
2023-04-03T19:04:19.055Z,2.45
2023-04-03T19:06:45.713Z,2.60
2023-04-03T19:09:12.299Z,3.72
2023-04-03T19:11:38.827Z,1.70
2023-04-03T19:14:16.247Z,4.20
2023-04-03T19:16:44.935Z,3.55
2023-04-03T19:19:12.130Z,2.05
2023-04-03T19:21:41.292Z,4.80
2023-04-03T19:24:10.960Z,2.38
2023-04-03T19:26:37.954Z,3.05
2023-04-03T19:29:04.810Z,2.60
2023-04-03T19:31:33.419Z,2.30
2023-04-03T19:34:00.951Z,2.72
2023-04-03T19:36:27.484Z,3.08
2023-04-03T19:38:54.044Z,5.95
2023-04-03T19:41:23.625Z,2.78
2023-04-03T19:43:55.854Z,1.90
2023-04-03T19:46:24.485Z,1.52
2023-04-03T19:48:51.244Z,2.97
2023-04-03T19:51:18.439Z,1.75
2023-04-03T19:53:45.231Z,3.05
2023-04-03T19:56:11.826Z,2.63
2023-04-03T19:58:39.450Z,2.83
2023-04-03T20:01:05.953Z,2.40
2023-04-03T20:03:32.681Z,3.63
2023-04-03T20:05:59.220Z,2.80
2023-04-03T20:08:28.352Z,2.00
2023-04-03T20:10:56.073Z,2.03
2023-04-03T20:13:22.642Z,2.55
2023-04-03T20:15:49.217Z,3.20
2023-04-03T20:18:20.482Z,2.38
2023-04-03T20:20:58.511Z,3.80
2023-04-03T20:23:28.142Z,2.25
2023-04-03T20:26:08.670Z,4.32
2023-04-03T20:28:38.318Z,3.53
2023-04-03T20:31:05.359Z,2.50
2023-04-03T20:33:32.020Z,3.78
2023-04-03T20:35:58.817Z,2.35
2023-04-03T20:38:25.649Z,3.47
2023-04-03T20:40:52.487Z,2.50
2023-04-03T20:43:19.622Z,2.47
2023-04-03T20:45:46.112Z,1.48
2023-04-03T20:48:13.189Z,2.03
2023-04-03T20:50:41.255Z,4.00
2023-04-03T20:53:08.932Z,3.00
2023-04-03T20:55:35.570Z,1.83
2023-04-03T20:58:02.252Z,3.38
2023-04-03T21:00:29.549Z,4.43
2023-04-03T21:02:57.852Z,2.88
2023-04-03T21:05:26.276Z,3.97
2023-04-03T21:08:32.029Z,2.95
2023-04-03T21:11:36.471Z,2.08
2023-04-03T21:14:42.456Z,3.88
2023-04-03T21:17:08.921Z,3.88
2023-04-03T21:19:40.142Z,3.60
2023-04-03T21:22:06.945Z,2.75
2023-04-03T21:24:33.497Z,2.40
2023-04-03T21:26:59.974Z,1.67
2023-04-03T21:29:26.500Z,3.15
2023-04-03T21:31:57.797Z,5.20
2023-04-03T21:34:27.625Z,1.95
2023-04-03T21:36:55.459Z,2.17
2023-04-03T21:39:23.096Z,4.00
2023-04-03T21:41:52.009Z,2.55
2023-04-03T21:44:20.293Z,3.25
2023-04-03T21:46:48.023Z,2.70
2023-04-03T21:49:14.964Z,3.60
2023-04-03T21:51:42.330Z,2.92
2023-04-03T21:54:09.250Z,8.02
2023-04-03T21:56:35.801Z,2.53
2023-04-03T21:59:05.449Z,3.45
2023-04-03T22:01:32.475Z,4.85
2023-04-03T22:03:59.581Z,3.08
2023-04-03T22:06:26.561Z,4.82
2023-04-03T22:08:53.238Z,3.17
2023-04-03T22:11:22.965Z,5.03
2023-04-03T22:13:52.431Z,4.57
2023-04-03T22:16:19.392Z,3.33
2023-04-03T22:18:46.058Z,3.60
2023-04-03T22:21:12.578Z,3.58
2023-04-03T22:23:39.581Z,3.88
2023-04-03T22:26:08.078Z,4.18
2023-04-03T22:28:45.873Z,3.22
2023-04-03T22:31:14.228Z,2.25
2023-04-03T22:33:42.249Z,4.10
2023-04-03T22:36:10.759Z,3.60
2023-04-03T22:38:38.911Z,3.83
2023-04-03T22:41:07.229Z,2.65
2023-04-03T22:43:36.470Z,3.63
2023-04-03T22:46:05.111Z,2.95
2023-04-03T22:48:31.959Z,6.05
2023-04-03T22:50:59.977Z,3.70
2023-04-03T22:53:29.526Z,3.58
2023-04-03T22:56:01.150Z,3.67
2023-04-03T22:58:28.917Z,4.38
2023-04-03T23:01:04.242Z,4.00
2023-04-03T23:03:30.813Z,3.97
2023-04-03T23:05:57.472Z,3.45
2023-04-03T23:08:24.177Z,5.70
2023-04-03T23:10:55.662Z,4.90
2023-04-03T23:13:22.992Z,2.28
2023-04-03T23:15:56.800Z,2.92
2023-04-03T23:18:23.806Z,5.43
2023-04-03T23:20:55.050Z,3.85
2023-04-03T23:23:23.586Z,3.60
2023-04-03T23:25:53.684Z,3.58
2023-04-03T23:28:20.888Z,3.38
2023-04-03T23:30:48.216Z,4.07
2023-04-03T23:33:15.123Z,5.50
2023-04-03T23:35:46.697Z,4.75
2023-04-03T23:38:13.723Z,3.17
2023-04-03T23:40:41.990Z,3.13
2023-04-03T23:43:08.875Z,2.17
2023-04-03T23:45:35.744Z,3.65
2023-04-03T23:48:02.310Z,2.95
2023-04-03T23:50:28.824Z,4.20
2023-04-03T23:52:55.544Z,3.20
2023-04-03T23:55:22.129Z,3.78
2023-04-03T23:57:48.641Z,2.00
